Time;durP1;ratioP1;P1;durP2;ratioP2;P2;SDS_P1;SDS_P2;PMS_P1;PMS_P2;Temp;Humidity;BMP_temperature;BMP_pressure;BME280_temperature;BME280_humidity;BME280_pressure;Samples;Min_cycle;Max_cycle;Signal;HPM_P1;HPM_P2
2022/05/19 00:01:20;;;;;;;5.67;5.17;;;16.60;90.50;;;;;;4975984;28;20537;-53
2022/05/19 00:03:48;;;;;;;7.90;6.80;;;16.40;91.60;;;;;;4976054;28;20479;-53
2022/05/19 00:06:15;;;;;;;6.40;5.33;;;16.40;91.60;;;;;;4975070;28;20994;-53
2022/05/19 00:08:42;;;;;;;9.40;5.60;;;16.40;91.40;;;;;;4983080;28;20481;-53
2022/05/19 00:11:11;;;;;;;10.80;6.17;;;16.50;91.30;;;;;;4976121;28;21019;-53
2022/05/19 00:13:39;;;;;;;9.23;5.10;;;16.50;91.10;;;;;;4992675;28;20489;-53
2022/05/19 00:16:06;;;;;;;7.60;6.67;;;16.60;90.80;;;;;;4994611;28;20494;-53
2022/05/19 00:18:33;;;;;;;5.50;5.00;;;16.60;90.60;;;;;;5003198;28;20480;-53
2022/05/19 00:21:01;;;;;;;5.20;3.90;;;16.60;90.40;;;;;;4994926;28;20485;-52
2022/05/19 00:23:28;;;;;;;5.90;4.73;;;16.60;90.70;;;;;;4999631;28;20476;-53
2022/05/19 00:25:55;;;;;;;6.17;5.40;;;16.60;90.60;;;;;;5002522;28;20524;-53
2022/05/19 00:28:22;;;;;;;6.47;5.27;;;16.60;90.50;;;;;;5015681;28;20485;-53
2022/05/19 00:30:49;;;;;;;5.93;5.33;;;16.60;90.30;;;;;;5017799;28;20884;-53
2022/05/19 00:33:15;;;;;;;6.20;5.60;;;16.40;90.50;;;;;;5017652;28;20476;-53
2022/05/19 00:35:42;;;;;;;6.87;5.50;;;16.30;90.40;;;;;;5016582;28;20473;-53
2022/05/19 00:38:10;;;;;;;5.70;5.20;;;16.30;90.70;;;;;;5018393;28;20491;-52
2022/05/19 00:40:38;;;;;;;8.23;6.10;;;16.30;90.70;;;;;;5019305;28;20859;-53
2022/05/19 00:43:06;;;;;;;6.50;4.83;;;16.20;90.50;;;;;;5013560;28;20550;-53
2022/05/19 00:45:42;;;;;;;6.33;5.17;;;16.20;90.40;;;;;;5015931;28;21034;-53
2022/05/19 00:48:18;;;;;;;7.10;5.50;;;15.90;90.70;;;;;;5017770;28;20503;-53
2022/05/19 00:50:48;;;;;;;6.13;4.93;;;15.70;91.50;;;;;;5015154;28;21000;-53
2022/05/19 00:53:25;;;;;;;14.07;6.40;;;15.50;91.60;;;;;;5007946;28;20484;-53
2022/05/19 00:55:53;;;;;;;5.70;5.03;;;15.30;92.60;;;;;;5013101;28;20479;-53
2022/05/19 00:58:24;;;;;;;5.67;5.17;;;15.30;92.90;;;;;;5005365;28;20791;-53
2022/05/19 01:00:51;;;;;;;8.23;6.00;;;15.30;92.80;;;;;;4998057;28;20824;-53
2022/05/19 01:03:19;;;;;;;5.30;4.80;;;15.40;92.40;;;;;;4994576;28;20499;-53
2022/05/19 01:05:48;;;;;;;7.10;5.00;;;15.50;92.00;;;;;;4996443;28;20494;-53
2022/05/19 01:08:21;;;;;;;10.03;5.30;;;15.50;91.80;;;;;;4998784;28;21074;-53
2022/05/19 01:10:48;;;;;;;5.77;5.20;;;15.60;91.40;;;;;;4999733;28;20756;-53
2022/05/19 01:13:16;;;;;;;8.77;5.47;;;15.60;91.40;;;;;;5008470;28;21000;-53
2022/05/19 01:15:46;;;;;;;5.40;4.67;;;15.50;91.40;;;;;;4993527;28;20485;-53
2022/05/19 01:18:15;;;;;;;8.03;5.33;;;15.50;91.70;;;;;;4988058;28;20482;-54
2022/05/19 01:20:43;;;;;;;5.20;4.70;;;15.50;91.50;;;;;;4999003;28;21035;-52
2022/05/19 01:23:21;;;;;;;5.97;5.47;;;15.50;91.60;;;;;;5002825;28;20530;-53
2022/05/19 01:25:54;;;;;;;7.50;4.70;;;15.50;91.70;;;;;;5019097;28;20487;-54
2022/05/19 01:28:22;;;;;;;6.13;5.10;;;15.40;91.50;;;;;;5014779;28;20609;-53
2022/05/19 01:30:49;;;;;;;6.60;5.00;;;15.40;91.30;;;;;;5018543;28;20481;-53
2022/05/19 01:33:16;;;;;;;9.37;6.27;;;15.30;91.50;;;;;;5022731;28;21085;-54
2022/05/19 01:35:42;;;;;;;6.40;5.80;;;15.30;91.60;;;;;;5021087;28;20879;-53
2022/05/19 01:38:15;;;;;;;6.17;5.57;;;15.30;91.80;;;;;;5021474;28;20558;-53
2022/05/19 01:40:55;;;;;;;10.90;5.90;;;15.30;91.80;;;;;;5018182;28;20477;-53
2022/05/19 01:43:31;;;;;;;4.83;4.23;;;15.40;91.70;;;;;;5019905;28;20562;-53
2022/05/19 01:46:13;;;;;;;5.73;5.13;;;15.40;91.50;;;;;;5020094;28;20488;-53
2022/05/19 01:48:46;;;;;;;9.23;5.57;;;15.50;91.60;;;;;;5019236;28;20479;-53
2022/05/19 01:51:21;;;;;;;10.53;6.47;;;15.50;91.70;;;;;;5016278;28;20492;-53
2022/05/19 01:54:07;;;;;;;7.47;6.53;;;15.60;91.90;;;;;;5021099;28;20471;-54
2022/05/19 01:56:39;;;;;;;6.67;5.87;;;15.60;92.10;;;;;;5020284;28;20485;-54
2022/05/19 01:59:15;;;;;;;11.30;6.27;;;15.70;92.40;;;;;;5015043;28;20915;-54
2022/05/19 02:01:49;;;;;;;7.67;4.50;;;15.80;92.30;;;;;;5007860;28;20506;-54
2022/05/19 02:04:22;;;;;;;6.40;4.60;;;15.70;92.10;;;;;;5033153;28;20884;-55
2022/05/19 02:06:52;;;;;;;5.80;4.70;;;15.60;91.50;;;;;;5011964;28;20823;-55
2022/05/19 02:09:23;;;;;;;6.37;5.10;;;15.30;91.70;;;;;;5002758;28;20475;-55
2022/05/19 02:11:54;;;;;;;6.37;4.60;;;15.10;92.60;;;;;;5020082;28;20485;-55
2022/05/19 02:14:28;;;;;;;8.67;5.00;;;15.00;92.90;;;;;;5018937;28;20487;-55
2022/05/19 02:16:56;;;;;;;4.50;4.10;;;15.00;92.40;;;;;;5019758;28;20563;-55
2022/05/19 02:19:27;;;;;;;8.40;5.40;;;14.90;92.10;;;;;;5020626;28;20971;-55
2022/05/19 02:21:55;;;;;;;5.90;5.30;;;14.80;92.80;;;;;;5014871;28;20610;-56
2022/05/19 02:24:26;;;;;;;10.07;5.87;;;14.60;93.50;;;;;;5031506;28;20546;-55
2022/05/19 02:26:53;;;;;;;9.77;5.33;;;14.70;93.70;;;;;;5019084;28;20488;-56
2022/05/19 02:29:26;;;;;;;6.80;6.20;;;14.70;93.30;;;;;;5018675;28;20495;-55
2022/05/19 02:31:53;;;;;;;5.83;5.13;;;14.80;93.00;;;;;;5009432;28;20564;-55
2022/05/19 02:34:20;;;;;;;6.87;5.53;;;14.80;93.10;;;;;;5020740;28;20484;-54
2022/05/19 02:36:47;;;;;;;13.27;5.67;;;14.80;93.10;;;;;;5019301;28;20477;-55
2022/05/19 02:39:13;;;;;;;6.90;6.10;;;14.90;92.90;;;;;;5012216;28;20550;-54
2022/05/19 02:41:40;;;;;;;6.33;5.73;;;15.00;93.00;;;;;;5000547;28;20932;-54
2022/05/19 02:44:07;;;;;;;7.20;5.80;;;15.00;92.70;;;;;;4999916;28;20482;-55
2022/05/19 02:46:35;;;;;;;5.47;4.97;;;15.00;92.40;;;;;;4999358;28;20504;-55
2022/05/19 02:49:02;;;;;;;9.93;6.23;;;14.70;93.20;;;;;;4998905;28;20904;-55
2022/05/19 02:51:30;;;;;;;6.63;5.90;;;14.50;94.30;;;;;;5001102;28;20837;-55
2022/05/19 02:53:57;;;;;;;6.60;5.50;;;14.50;94.30;;;;;;5000239;28;20485;-55
2022/05/19 02:56:23;;;;;;;9.33;5.93;;;14.50;93.90;;;;;;4999537;28;20482;-55
2022/05/19 02:58:50;;;;;;;5.43;4.83;;;14.60;93.30;;;;;;4998639;28;20498;-55
2022/05/19 03:01:17;;;;;;;6.10;5.20;;;14.60;92.90;;;;;;5002370;28;21139;-55
2022/05/19 03:03:45;;;;;;;6.30;5.70;;;14.70;92.80;;;;;;5000622;28;20904;-55
2022/05/19 03:06:11;;;;;;;6.73;6.07;;;14.80;92.50;;;;;;4999659;28;20935;-55
2022/05/19 03:08:38;;;;;;;5.20;4.73;;;14.80;92.40;;;;;;5001192;28;20489;-55
2022/05/19 03:11:05;;;;;;;6.03;5.17;;;14.90;92.30;;;;;;5000196;28;20481;-55
2022/05/19 03:13:32;;;;;;;8.40;5.30;;;14.90;92.40;;;;;;4998756;28;20482;-56
2022/05/19 03:15:58;;;;;;;7.73;6.27;;;14.80;92.20;;;;;;4998139;28;20477;-56
2022/05/19 03:18:25;;;;;;;6.80;6.10;;;14.80;92.20;;;;;;4995577;28;21103;-56
2022/05/19 03:20:53;;;;;;;5.40;4.90;;;14.80;92.00;;;;;;5001690;28;21003;-56
2022/05/19 03:23:20;;;;;;;5.87;5.27;;;14.80;92.00;;;;;;4979393;28;20615;-55
2022/05/19 03:25:46;;;;;;;5.50;5.00;;;14.80;92.10;;;;;;5029626;28;20974;-55
2022/05/19 03:28:14;;;;;;;9.50;6.80;;;14.70;92.20;;;;;;5020449;28;20546;-55
2022/05/19 03:30:40;;;;;;;8.77;6.00;;;14.70;92.30;;;;;;5018225;28;20491;-55
2022/05/19 03:33:07;;;;;;;8.10;5.53;;;14.70;92.30;;;;;;5017318;28;20762;-55
2022/05/19 03:35:34;;;;;;;8.60;5.77;;;14.70;92.00;;;;;;5018332;28;20479;-55
2022/05/19 03:38:02;;;;;;;8.03;5.30;;;14.80;92.40;;;;;;5019337;28;20518;-55
2022/05/19 03:40:29;;;;;;;6.57;5.97;;;14.70;92.40;;;;;;5017597;28;20488;-57
2022/05/19 03:42:56;;;;;;;6.60;5.57;;;14.70;92.20;;;;;;5019922;28;20956;-56
2022/05/19 03:45:22;;;;;;;9.53;5.63;;;14.70;92.30;;;;;;5018233;28;20498;-56
2022/05/19 03:47:50;;;;;;;6.80;5.67;;;14.70;92.40;;;;;;5019681;28;20481;-56
2022/05/19 03:50:17;;;;;;;7.03;5.90;;;14.70;92.40;;;;;;5018963;28;20496;-56
2022/05/19 03:52:45;;;;;;;6.53;5.67;;;14.70;92.80;;;;;;5019767;28;20484;-56
2022/05/19 03:55:14;;;;;;;8.23;6.60;;;14.70;92.80;;;;;;5016918;28;20488;-56
2022/05/19 03:57:42;;;;;;;10.70;5.27;;;14.60;92.60;;;;;;5019473;28;20488;-56
2022/05/19 04:00:11;;;;;;;9.50;5.73;;;14.50;92.40;;;;;;5017930;28;20499;-56
2022/05/19 04:02:37;;;;;;;14.93;5.33;;;14.30;92.60;;;;;;5017212;28;20838;-56
2022/05/19 04:05:05;;;;;;;9.00;5.70;;;14.10;93.00;;;;;;5018296;28;20826;-56
2022/05/19 04:07:32;;;;;;;10.80;6.13;;;13.70;93.90;;;;;;5018637;28;20708;-56
2022/05/19 04:09:59;;;;;;;7.20;6.33;;;13.60;95.00;;;;;;5019483;28;20487;-56
2022/05/19 04:12:27;;;;;;;6.67;6.07;;;13.60;95.40;;;;;;5016840;28;20487;-56
2022/05/19 04:14:54;;;;;;;7.93;7.00;;;13.70;95.20;;;;;;5019422;28;20488;-56
2022/05/19 04:17:21;;;;;;;7.23;6.00;;;13.90;94.90;;;;;;5016886;28;20472;-56
2022/05/19 04:19:47;;;;;;;11.93;6.53;;;14.10;94.80;;;;;;5016811;28;20488;-56
2022/05/19 04:22:14;;;;;;;7.40;6.67;;;14.20;94.60;;;;;;5019088;28;21336;-55
2022/05/19 04:24:41;;;;;;;7.17;6.23;;;14.40;94.50;;;;;;5016820;28;20480;-55
2022/05/19 04:27:08;;;;;;;10.70;6.73;;;14.60;94.30;;;;;;5016030;28;21153;-56
2022/05/19 04:29:36;;;;;;;9.10;5.80;;;14.70;94.20;;;;;;5017920;28;20542;-56
2022/05/19 04:32:02;;;;;;;7.10;6.40;;;14.90;94.30;;;;;;5004747;28;20482;-55
2022/05/19 04:34:29;;;;;;;6.50;5.80;;;15.00;94.00;;;;;;4994907;28;20485;-57
2022/05/19 04:36:56;;;;;;;8.37;6.20;;;14.90;94.30;;;;;;5000281;28;20954;-56
2022/05/19 04:39:22;;;;;;;7.03;6.33;;;14.80;95.10;;;;;;4999016;28;20480;-57
2022/05/19 04:41:49;;;;;;;7.27;6.57;;;14.70;95.80;;;;;;4998938;28;20477;-57
2022/05/19 04:44:18;;;;;;;7.13;6.43;;;14.80;95.50;;;;;;4996614;28;20481;-57
2022/05/19 04:46:46;;;;;;;8.90;7.03;;;14.90;95.30;;;;;;4997429;28;20478;-57
2022/05/19 04:49:12;;;;;;;6.63;5.90;;;15.00;94.90;;;;;;4998485;28;20539;-57
2022/05/19 04:51:39;;;;;;;6.47;5.83;;;14.80;95.20;;;;;;4999519;28;20493;-56
2022/05/19 04:54:06;;;;;;;8.40;6.93;;;14.70;96.00;;;;;;4998708;28;20535;-56
2022/05/19 04:56:33;;;;;;;8.10;5.93;;;14.80;96.00;;;;;;4996336;28;20925;-56
2022/05/19 04:58:59;;;;;;;6.53;5.83;;;15.00;96.10;;;;;;4998447;28;20627;-56
2022/05/19 05:01:26;;;;;;;7.13;6.43;;;15.20;96.10;;;;;;4999042;28;20548;-56
2022/05/19 05:03:54;;;;;;;7.30;6.60;;;15.30;96.00;;;;;;4996911;28;20492;-56
2022/05/19 05:06:20;;;;;;;8.70;7.30;;;15.50;95.80;;;;;;5000178;28;20493;-56
2022/05/19 05:08:47;;;;;;;7.27;6.57;;;15.60;95.50;;;;;;5000327;28;20492;-57
2022/05/19 05:11:14;;;;;;;7.13;6.40;;;15.70;95.80;;;;;;5013499;28;20558;-57
2022/05/19 05:13:40;;;;;;;7.30;6.60;;;15.70;95.70;;;;;;5022025;28;20476;-57
2022/05/19 05:16:07;;;;;;;9.20;7.03;;;15.80;96.10;;;;;;5021161;28;20484;-57
2022/05/19 05:18:34;;;;;;;8.37;7.57;;;15.90;96.30;;;;;;5017582;28;20488;-57
2022/05/19 05:21:04;;;;;;;6.73;6.07;;;16.10;96.30;;;;;;5021819;28;21000;-57
2022/05/19 05:23:31;;;;;;;7.80;6.70;;;16.20;96.20;;;;;;5018380;28;20487;-56
2022/05/19 05:25:57;;;;;;;10.17;8.00;;;16.30;96.20;;;;;;5020424;28;20966;-55
2022/05/19 05:28:24;;;;;;;7.53;6.83;;;16.40;96.30;;;;;;5021695;28;20475;-56
2022/05/19 05:30:51;;;;;;;7.57;6.87;;;16.50;96.20;;;;;;5019676;28;20546;-56
2022/05/19 05:33:18;;;;;;;8.37;7.57;;;16.50;96.30;;;;;;5022440;28;21052;-55
2022/05/19 05:35:45;;;;;;;11.37;7.43;;;16.60;96.50;;;;;;5019743;28;20477;-56
2022/05/19 05:38:12;;;;;;;9.80;7.27;;;16.50;96.80;;;;;;5021670;28;20510;-57
2022/05/19 05:40:39;;;;;;;9.43;7.83;;;16.60;96.80;;;;;;5022094;28;20590;-55
2022/05/19 05:43:07;;;;;;;7.10;6.50;;;16.70;97.10;;;;;;5019890;28;20503;-55
2022/05/19 05:45:34;;;;;;;10.03;6.87;;;16.80;96.90;;;;;;5012440;28;20488;-55
2022/05/19 05:48:00;;;;;;;8.00;7.20;;;17.00;97.10;;;;;;5001332;28;20472;-56
2022/05/19 05:50:27;;;;;;;9.60;8.60;;;17.20;96.90;;;;;;5001033;28;20493;-55
2022/05/19 05:52:54;;;;;;;11.17;8.60;;;17.40;96.80;;;;;;5002248;28;20558;-56
2022/05/19 05:55:22;;;;;;;8.40;7.57;;;17.60;97.20;;;;;;4998889;28;20501;-56
2022/05/19 05:57:49;;;;;;;8.70;7.80;;;17.80;97.10;;;;;;5001484;28;20485;-56
2022/05/19 06:00:17;;;;;;;10.00;7.97;;;18.00;97.00;;;;;;5000533;28;21010;-55
2022/05/19 06:02:43;;;;;;;8.10;7.33;;;18.30;96.90;;;;;;5001313;28;20481;-56
2022/05/19 06:05:11;;;;;;;15.70;9.20;;;18.50;96.70;;;;;;4998884;28;20481;-56
2022/05/19 06:07:38;;;;;;;9.30;8.40;;;18.80;96.70;;;;;;5000097;28;20481;-56
2022/05/19 06:10:05;;;;;;;8.70;7.90;;;19.10;96.50;;;;;;5001356;28;20826;-56
2022/05/19 06:12:33;;;;;;;8.50;7.70;;;19.30;96.80;;;;;;5001268;28;20979;-56
2022/05/19 06:15:00;;;;;;;12.10;10.47;;;19.50;96.20;;;;;;5000816;28;20485;-56
2022/05/19 06:17:27;;;;;;;10.83;7.47;;;19.80;95.80;;;;;;4985943;28;20543;-56
2022/05/19 06:19:53;;;;;;;8.63;7.10;;;20.00;95.70;;;;;;5007063;28;21009;-56
2022/05/19 06:22:22;;;;;;;9.03;7.97;;;20.20;95.10;;;;;;5001628;28;20489;-56
2022/05/19 06:24:49;;;;;;;8.13;7.27;;;20.40;94.90;;;;;;4997111;28;21004;-56
2022/05/19 06:27:16;;;;;;;8.07;6.70;;;20.50;94.20;;;;;;5000134;28;20616;-56
2022/05/19 06:29:44;;;;;;;14.70;8.13;;;20.80;93.80;;;;;;5000049;28;21060;-56
2022/05/19 06:32:11;;;;;;;8.30;7.60;;;21.00;94.20;;;;;;5000238;28;20943;-55
2022/05/19 06:34:38;;;;;;;8.20;6.60;;;21.30;94.40;;;;;;4998205;28;20466;-55
2022/05/19 06:37:05;;;;;;;9.20;7.63;;;21.50;93.50;;;;;;4999626;28;20487;-56
2022/05/19 06:39:32;;;;;;;6.87;6.03;;;21.70;93.90;;;;;;5000312;28;20485;-56
2022/05/19 06:42:01;;;;;;;6.97;6.37;;;21.80;92.70;;;;;;4997994;28;25592;-56
2022/05/19 06:44:29;;;;;;;9.33;6.20;;;22.00;92.80;;;;;;4988807;28;20544;-56
2022/05/19 06:46:57;;;;;;;7.30;6.60;;;22.20;91.90;;;;;;4994931;28;20608;-56
2022/05/19 06:49:24;;;;;;;6.70;6.10;;;22.40;92.00;;;;;;5001195;28;21092;-56
2022/05/19 06:51:50;;;;;;;5.97;5.37;;;22.60;91.80;;;;;;4999315;28;20493;-57
2022/05/19 06:54:17;;;;;;;7.37;6.60;;;22.70;90.90;;;;;;5001202;28;20481;-56
2022/05/19 06:56:44;;;;;;;7.10;6.50;;;22.90;92.20;;;;;;4999192;28;20489;-56
2022/05/19 06:59:11;;;;;;;12.37;5.60;;;23.00;92.40;;;;;;4989214;28;20501;-55
2022/05/19 07:01:38;;;;;;;6.97;6.43;;;23.30;91.20;;;;;;5000974;28;20489;-55
2022/05/19 07:04:07;;;;;;;6.40;5.90;;;23.40;91.50;;;;;;5000300;28;20485;-55
2022/05/19 07:06:34;;;;;;;6.90;6.40;;;23.60;91.70;;;;;;4998235;28;20493;-55
2022/05/19 07:09:00;;;;;;;6.27;5.63;;;23.70;91.20;;;;;;4998185;28;20486;-56
2022/05/19 07:11:27;;;;;;;6.53;5.93;;;23.80;91.60;;;;;;4997462;28;20490;-55
2022/05/19 07:13:55;;;;;;;20.03;6.80;;;23.80;91.50;;;;;;4993127;28;20481;-55
2022/05/19 07:16:22;;;;;;;8.43;5.50;;;23.80;91.60;;;;;;4984786;28;20478;-54
2022/05/19 07:18:49;;;;;;;8.27;6.07;;;24.00;92.20;;;;;;4970634;28;20489;-55
2022/05/19 07:21:18;;;;;;;6.73;6.00;;;24.20;92.70;;;;;;4979947;28;20484;-55
2022/05/19 07:23:46;;;;;;;9.03;6.70;;;24.40;93.00;;;;;;4982833;28;20477;-55
2022/05/19 07:26:12;;;;;;;8.37;6.37;;;24.50;92.50;;;;;;4974423;28;20816;-55
2022/05/19 07:28:39;;;;;;;7.00;5.73;;;24.70;91.90;;;;;;4984191;28;20490;-55
2022/05/19 07:31:06;;;;;;;5.53;5.10;;;24.80;91.80;;;;;;4982080;28;20577;-55
2022/05/19 07:33:36;;;;;;;9.03;5.63;;;24.90;91.60;;;;;;4984147;28;20485;-56
2022/05/19 07:36:06;;;;;;;6.07;5.47;;;24.90;91.70;;;;;;4992566;28;20925;-55
2022/05/19 07:38:35;;;;;;;5.70;5.20;;;25.10;91.00;;;;;;4999002;28;20583;-55
2022/05/19 07:41:03;;;;;;;6.20;5.70;;;25.20;90.70;;;;;;5000590;28;20481;-55
2022/05/19 07:43:41;;;;;;;7.27;5.87;;;25.40;90.50;;;;;;5005023;28;20493;-54
2022/05/19 07:46:10;;;;;;;5.47;4.93;;;25.40;87.30;;;;;;4997375;28;20523;-54
2022/05/19 07:48:38;;;;;;;6.33;5.70;;;25.50;88.90;;;;;;5001453;28;21035;-54
2022/05/19 07:51:05;;;;;;;7.10;5.47;;;25.60;86.40;;;;;;4997122;28;20488;-53
2022/05/19 07:53:32;;;;;;;7.43;5.63;;;25.70;88.10;;;;;;4994736;28;20718;-53
2022/05/19 07:56:00;;;;;;;7.50;5.27;;;25.90;85.10;;;;;;4997158;28;21159;-54
2022/05/19 07:58:28;;;;;;;8.07;5.83;;;25.90;86.50;;;;;;5004834;28;20838;-53
2022/05/19 08:00:55;;;;;;;8.67;7.07;;;26.00;85.50;;;;;;5002105;28;20539;-52
2022/05/19 08:03:23;;;;;;;6.20;4.80;;;26.20;86.70;;;;;;4996436;28;21021;-55
2022/05/19 08:05:50;;;;;;;6.43;5.40;;;26.40;87.10;;;;;;4997717;28;20503;-53
2022/05/19 08:08:17;;;;;;;7.97;5.47;;;26.60;84.60;;;;;;5000187;28;20483;-54
2022/05/19 08:10:44;;;;;;;14.13;5.47;;;26.50;82.80;;;;;;4988182;28;20476;-54
2022/05/19 08:15:57;;;;;;;8.97;5.00;;;26.90;84.30;;;;;;4992993;28;20488;-53
2022/05/19 08:18:25;;;;;;;9.20;5.50;;;27.10;85.80;;;;;;4994620;28;20473;-54
2022/05/19 08:20:56;;;;;;;9.67;5.83;;;27.20;83.30;;;;;;5002697;28;20687;-53
2022/05/19 08:23:26;;;;;;;17.70;5.13;;;27.30;81.60;;;;;;4992836;28;20494;-53
2022/05/19 08:25:53;;;;;;;5.60;5.07;;;27.40;80.30;;;;;;4995436;28;20496;-53
2022/05/19 08:28:28;;;;;;;5.57;4.70;;;27.40;81.90;;;;;;4996165;28;20554;-54
2022/05/19 08:30:57;;;;;;;6.50;5.13;;;27.50;81.60;;;;;;5000097;28;20485;-53
2022/05/19 08:33:24;;;;;;;5.20;4.77;;;27.60;78.40;;;;;;4996928;28;20489;-54
2022/05/19 08:35:51;;;;;;;9.73;4.90;;;27.70;79.80;;;;;;4995066;28;20470;-52
2022/05/19 08:38:18;;;;;;;5.40;4.50;;;27.80;79.70;;;;;;4998908;28;20505;-54
2022/05/19 08:40:48;;;;;;;13.37;5.10;;;27.90;80.50;;;;;;5002985;28;20530;-52
2022/05/19 08:43:19;;;;;;;8.90;4.63;;;27.90;79.40;;;;;;4996072;28;20477;-55
2022/05/19 08:45:50;;;;;;;9.33;4.17;;;28.10;78.60;;;;;;4985222;28;21038;-53
2022/05/19 08:48:21;;;;;;;7.03;5.00;;;28.20;77.60;;;;;;4996333;28;20477;-53
2022/05/19 08:50:51;;;;;;;6.23;3.83;;;28.20;77.70;;;;;;4996456;28;20472;-52
2022/05/19 08:53:19;;;;;;;4.30;4.00;;;28.40;78.50;;;;;;4995606;28;20482;-52
2022/05/19 08:55:50;;;;;;;7.23;4.77;;;28.60;78.70;;;;;;4986934;28;20484;-53
2022/05/19 08:58:37;;;;;;;4.57;3.50;;;28.60;76.40;;;;;;4983361;28;20500;-53
2022/05/19 09:01:13;;;;;;;15.30;3.63;;;28.60;74.30;;;;;;4996301;28;20488;-53
2022/05/19 09:03:48;;;;;;;4.73;4.20;;;28.50;73.50;;;;;;4995432;28;20497;-53
2022/05/19 09:06:34;;;;;;;4.53;4.13;;;28.50;74.50;;;;;;5003246;28;20476;-53
2022/05/19 09:09:22;;;;;;;9.03;4.30;;;28.60;77.10;;;;;;5001163;28;20492;-53
2022/05/19 09:11:56;;;;;;;7.40;5.23;;;28.70;75.50;;;;;;4999600;28;20478;-52
2022/05/19 09:14:25;;;;;;;8.47;5.30;;;28.90;74.40;;;;;;4989068;28;20510;-58
2022/05/19 09:16:58;;;;;;;6.23;4.37;;;28.90;74.90;;;;;;5000655;28;21389;-53
2022/05/19 09:19:30;;;;;;;8.20;5.27;;;28.80;74.20;;;;;;4999020;28;20485;-54
2022/05/19 09:22:04;;;;;;;9.07;4.33;;;28.70;74.70;;;;;;4996781;28;20865;-54
2022/05/19 09:24:31;;;;;;;4.97;4.37;;;28.80;75.40;;;;;;4998620;28;20491;-53
2022/05/19 09:27:00;;;;;;;7.30;4.30;;;28.80;74.10;;;;;;4999290;28;21117;-53
2022/05/19 09:29:32;;;;;;;6.10;5.33;;;28.90;77.50;;;;;;5004174;28;20455;-53
2022/05/19 09:32:14;;;;;;;4.63;4.23;;;29.10;77.70;;;;;;4993747;28;20551;-54
2022/05/19 09:34:44;;;;;;;5.33;3.93;;;28.90;74.00;;;;;;4998568;28;20487;-53
2022/05/19 09:37:14;;;;;;;6.20;4.33;;;29.00;74.20;;;;;;4995236;28;20580;-53
2022/05/19 09:39:50;;;;;;;5.53;4.07;;;28.80;75.10;;;;;;4996140;28;21532;-53
2022/05/19 09:42:21;;;;;;;6.03;4.33;;;28.60;75.90;;;;;;4992534;28;20473;-54
2022/05/19 09:44:54;;;;;;;6.40;4.43;;;28.40;75.30;;;;;;4988803;28;20469;-54
2022/05/19 09:47:29;;;;;;;8.23;4.03;;;28.30;78.10;;;;;;4989449;28;20485;-59
2022/05/19 09:50:01;;;;;;;10.03;4.70;;;28.10;75.20;;;;;;5004338;28;20465;-53
2022/05/19 09:52:32;;;;;;;5.13;4.03;;;28.00;76.70;;;;;;4997420;28;20485;-53
2022/05/19 09:55:01;;;;;;;4.73;3.30;;;27.90;77.00;;;;;;4998253;28;21023;-53
2022/05/19 09:57:39;;;;;;;4.57;3.77;;;28.00;74.50;;;;;;5003446;28;20477;-54
2022/05/19 10:00:11;;;;;;;9.00;4.70;;;28.00;75.20;;;;;;4999812;28;20484;-53
2022/05/19 10:02:44;;;;;;;6.70;4.47;;;28.20;76.60;;;;;;4999093;28;20489;-52
2022/05/19 10:05:25;;;;;;;5.93;4.17;;;28.40;74.10;;;;;;4994679;28;20884;-53
2022/05/19 10:07:57;;;;;;;4.17;3.80;;;28.50;73.90;;;;;;4990973;28;20439;-53
2022/05/19 10:10:26;;;;;;;5.90;4.70;;;28.60;74.70;;;;;;4993653;28;20479;-53
2022/05/19 10:12:57;;;;;;;5.20;4.17;;;28.70;74.30;;;;;;4997888;28;20456;-53
2022/05/19 10:15:30;;;;;;;6.50;5.30;;;28.90;76.20;;;;;;4996922;28;20459;-54
2022/05/19 10:18:06;;;;;;;9.83;6.03;;;29.10;78.80;;;;;;4994226;28;20861;-54
2022/05/19 10:20:41;;;;;;;8.10;4.70;;;29.00;73.60;;;;;;4998617;28;20500;-54
2022/05/19 10:23:20;;;;;;;10.00;6.00;;;28.80;71.70;;;;;;5005188;28;20911;-54
2022/05/19 10:26:03;;;;;;;8.70;4.80;;;28.50;73.40;;;;;;5003054;28;20596;-53
2022/05/19 10:31:45;;;;;;;7.63;4.90;;;28.40;74.70;;;;;;5002255;28;20567;-54
2022/05/19 10:34:29;;;;;;;8.10;4.17;;;28.60;75.20;;;;;;5005753;28;20455;-53
2022/05/19 10:37:06;;;;;;;5.27;4.67;;;28.60;73.90;;;;;;4986846;28;20482;-54
2022/05/19 10:39:51;;;;;;;8.60;5.10;;;28.70;74.40;;;;;;4996977;28;20476;-52
2022/05/19 10:42:25;;;;;;;7.83;4.70;;;28.80;75.60;;;;;;5008571;28;20483;-52
2022/05/19 10:45:08;;;;;;;7.47;5.03;;;29.00;75.00;;;;;;4996798;28;20477;-53
2022/05/19 10:47:46;;;;;;;7.63;5.13;;;29.10;76.80;;;;;;5001528;28;20489;-55
2022/05/19 10:50:29;;;;;;;8.00;4.90;;;29.10;76.00;;;;;;4998568;28;21659;-54
2022/05/19 10:53:21;;;;;;;7.60;4.67;;;29.10;76.20;;;;;;4992886;28;20451;-54
2022/05/19 10:56:02;;;;;;;4.97;4.57;;;29.30;77.20;;;;;;4969694;28;20454;-53
2022/05/19 10:58:47;;;;;;;10.23;4.93;;;29.50;75.60;;;;;;5005747;28;20993;-53
2022/05/19 11:01:30;;;;;;;6.23;5.33;;;29.50;74.20;;;;;;5001435;28;20492;-53
2022/05/19 11:04:30;;;;;;;8.03;5.90;;;29.60;72.80;;;;;;4989891;28;20469;-53
2022/05/19 11:07:26;;;;;;;8.10;5.30;;;29.60;72.70;;;;;;4985393;28;20512;-54
2022/05/19 11:09:59;;;;;;;7.47;5.90;;;29.70;76.20;;;;;;4992819;28;20477;-53
2022/05/19 11:12:33;;;;;;;5.67;5.03;;;29.60;74.20;;;;;;4995629;28;21063;-56
2022/05/19 11:15:15;;;;;;;8.50;5.10;;;29.40;71.50;;;;;;5004835;28;20489;-53
2022/05/19 11:17:53;;;;;;;6.77;5.40;;;29.60;74.80;;;;;;5002580;28;21337;-53
2022/05/19 11:20:23;;;;;;;5.60;5.10;;;29.60;73.60;;;;;;5002331;28;20832;-53
2022/05/19 11:22:54;;;;;;;7.47;4.90;;;29.90;77.40;;;;;;4998828;28;20477;-53
2022/05/19 11:28:21;;;;;;;5.30;4.80;;;29.70;74.60;;;;;;5005576;28;20963;-54
2022/05/19 11:30:53;;;;;;;9.73;4.90;;;29.60;74.20;;;;;;5003518;28;20454;-53
2022/05/19 11:33:24;;;;;;;8.83;4.40;;;29.90;75.00;;;;;;5002203;28;20473;-52
2022/05/19 11:35:57;;;;;;;8.90;5.80;;;30.00;76.10;;;;;;4999407;28;21086;-54
2022/05/19 11:38:31;;;;;;;6.30;4.83;;;30.10;73.90;;;;;;4991044;28;20468;-53
2022/05/19 11:41:02;;;;;;;4.97;4.40;;;30.00;73.30;;;;;;4984308;28;20452;-54
2022/05/19 11:43:35;;;;;;;7.17;5.17;;;30.10;74.30;;;;;;5005639;28;20980;-54
2022/05/19 11:46:05;;;;;;;7.70;5.37;;;30.10;75.70;;;;;;5000978;28;20488;-53
2022/05/19 11:57:18;;;;;;;5.90;5.27;;;30.00;76.40;;;;;;4999033;28;20482;-54
2022/05/19 11:59:50;;;;;;;20.17;6.70;;;30.00;75.10;;;;;;4996668;28;20539;-53
2022/05/19 12:02:22;;;;;;;14.60;5.00;;;30.20;77.20;;;;;;5007322;28;20489;-53
2022/05/19 12:04:52;;;;;;;10.83;5.97;;;30.10;73.90;;;;;;4998694;28;20478;-53
2022/05/19 12:07:23;;;;;;;6.90;6.20;;;30.20;77.20;;;;;;4998821;28;21423;-53
2022/05/19 12:09:56;;;;;;;9.83;6.20;;;30.30;78.00;;;;;;4999320;28;20655;-53
2022/05/19 12:12:26;;;;;;;7.40;5.40;;;30.30;74.50;;;;;;5005041;28;20543;-54
2022/05/19 12:15:14;;;;;;;9.10;5.80;;;30.60;74.60;;;;;;5002622;28;20615;-53
2022/05/19 12:17:45;;;;;;;6.70;5.00;;;30.60;74.60;;;;;;4998092;28;20455;-53
2022/05/19 12:20:36;;;;;;;8.57;5.33;;;30.70;75.60;;;;;;5000202;28;20844;-53
2022/05/19 12:23:16;;;;;;;12.27;4.80;;;30.70;73.80;;;;;;4992803;28;20478;-54
2022/05/19 12:25:48;;;;;;;7.60;5.47;;;30.70;74.90;;;;;;4995937;28;20477;-53
2022/05/19 12:28:37;;;;;;;5.87;5.33;;;30.80;74.50;;;;;;5000454;28;20461;-53
2022/05/19 12:33:53;;;;;;;10.63;4.63;;;30.50;74.20;;;;;;4998751;28;20459;-54
2022/05/19 12:36:27;;;;;;;6.10;5.50;;;30.40;74.30;;;;;;5002795;28;20753;-53
2022/05/19 12:39:09;;;;;;;11.13;4.90;;;30.40;73.90;;;;;;5000758;28;20520;-51
2022/05/19 12:41:40;;;;;;;7.73;5.20;;;30.40;74.50;;;;;;5001485;28;21308;-53
2022/05/19 12:44:27;;;;;;;9.47;5.87;;;30.50;75.70;;;;;;4993513;28;20477;-53
2022/05/19 12:46:59;;;;;;;8.67;5.13;;;30.50;77.10;;;;;;5001500;28;20510;-53
2022/05/19 12:49:28;;;;;;;6.63;5.73;;;30.70;74.80;;;;;;4998813;28;20462;-53
2022/05/19 12:51:57;;;;;;;11.23;6.13;;;30.70;75.90;;;;;;4997583;28;20979;-54
2022/05/19 12:54:26;;;;;;;8.23;4.80;;;30.70;73.20;;;;;;4997589;28;20474;-56
2022/05/19 12:57:01;;;;;;;7.93;5.33;;;30.60;73.80;;;;;;4997078;28;20978;-55
2022/05/19 12:59:35;;;;;;;8.30;4.93;;;30.50;74.30;;;;;;5005368;28;20475;-54
2022/05/19 13:02:05;;;;;;;6.40;5.40;;;30.70;75.20;;;;;;4998138;28;20465;-57
2022/05/19 13:04:37;;;;;;;7.40;5.60;;;30.80;73.90;;;;;;4987639;28;20536;-53
2022/05/19 13:07:10;;;;;;;12.50;5.80;;;30.80;75.20;;;;;;4983708;28;20485;-53
2022/05/19 13:09:37;;;;;;;7.07;5.30;;;30.90;74.60;;;;;;4991200;28;20530;-52
2022/05/19 13:12:12;;;;;;;8.20;6.30;;;31.10;76.00;;;;;;5001847;28;20965;-55
2022/05/19 13:14:44;;;;;;;8.63;5.83;;;31.30;75.90;;;;;;4992950;28;20483;-54
2022/05/19 13:17:17;;;;;;;8.50;5.40;;;31.30;73.40;;;;;;5001619;28;20456;-54
2022/05/19 13:19:44;;;;;;;7.33;4.60;;;31.30;73.90;;;;;;4997188;28;20471;-56
2022/05/19 13:22:21;;;;;;;6.07;5.33;;;31.40;73.70;;;;;;4997081;28;20502;-53